sensor_id;sensor_type;location;lat;lon;timestamp;P1;durP1;ratioP1;P2;durP2;ratioP2
25780;SDS011;13626;48.128;11.628;2023-02-13T00:00:21;34.95;;;14.25;;
25780;SDS011;13626;48.128;11.628;2023-02-13T00:02:49;39.28;;;13.73;;
25780;SDS011;13626;48.128;11.628;2023-02-13T00:05:17;49.00;;;15.27;;
25780;SDS011;13626;48.128;11.628;2023-02-13T00:07:44;39.92;;;15.02;;
25780;SDS011;13626;48.128;11.628;2023-02-13T00:10:11;49.25;;;14.93;;
25780;SDS011;13626;48.128;11.628;2023-02-13T00:12:38;53.80;;;18.15;;
25780;SDS011;13626;48.128;11.628;2023-02-13T00:15:06;38.25;;;14.38;;
25780;SDS011;13626;48.128;11.628;2023-02-13T00:17:33;40.45;;;15.15;;
25780;SDS011;13626;48.128;11.628;2023-02-13T00:20:00;42.45;;;16.80;;
25780;SDS011;13626;48.128;11.628;2023-02-13T00:22:28;40.92;;;16.92;;
25780;SDS011;13626;48.128;11.628;2023-02-13T00:24:55;44.88;;;14.80;;
25780;SDS011;13626;48.128;11.628;2023-02-13T00:27:22;45.88;;;16.38;;
25780;SDS011;13626;48.128;11.628;2023-02-13T00:29:49;41.63;;;15.73;;
25780;SDS011;13626;48.128;11.628;2023-02-13T00:32:16;47.33;;;15.75;;
25780;SDS011;13626;48.128;11.628;2023-02-13T00:34:43;40.53;;;15.50;;
25780;SDS011;13626;48.128;11.628;2023-02-13T00:37:11;58.85;;;17.60;;
25780;SDS011;13626;48.128;11.628;2023-02-13T00:39:38;54.65;;;16.77;;
25780;SDS011;13626;48.128;11.628;2023-02-13T00:42:05;41.88;;;16.73;;
25780;SDS011;13626;48.128;11.628;2023-02-13T00:44:32;43.28;;;15.27;;
25780;SDS011;13626;48.128;11.628;2023-02-13T00:46:59;41.25;;;14.98;;
25780;SDS011;13626;48.128;11.628;2023-02-13T00:49:27;43.17;;;16.48;;
25780;SDS011;13626;48.128;11.628;2023-02-13T00:51:54;40.92;;;15.98;;
25780;SDS011;13626;48.128;11.628;2023-02-13T00:54:21;45.40;;;15.60;;
25780;SDS011;13626;48.128;11.628;2023-02-13T00:56:48;44.40;;;15.88;;
25780;SDS011;13626;48.128;11.628;2023-02-13T00:59:15;47.42;;;16.35;;
25780;SDS011;13626;48.128;11.628;2023-02-13T01:01:43;41.85;;;15.70;;
25780;SDS011;13626;48.128;11.628;2023-02-13T01:04:10;43.38;;;15.90;;
25780;SDS011;13626;48.128;11.628;2023-02-13T01:06:37;44.22;;;16.52;;
25780;SDS011;13626;48.128;11.628;2023-02-13T01:09:05;44.80;;;15.70;;
25780;SDS011;13626;48.128;11.628;2023-02-13T01:11:32;43.72;;;15.50;;
25780;SDS011;13626;48.128;11.628;2023-02-13T01:13:59;39.85;;;15.57;;
25780;SDS011;13626;48.128;11.628;2023-02-13T01:16:26;43.20;;;16.75;;
25780;SDS011;13626;48.128;11.628;2023-02-13T01:18:53;46.78;;;17.25;;
25780;SDS011;13626;48.128;11.628;2023-02-13T01:21:21;44.45;;;15.60;;
25780;SDS011;13626;48.128;11.628;2023-02-13T01:23:49;47.20;;;16.35;;
25780;SDS011;13626;48.128;11.628;2023-02-13T01:26:20;45.35;;;16.30;;
25780;SDS011;13626;48.128;11.628;2023-02-13T01:28:51;42.38;;;16.30;;
25780;SDS011;13626;48.128;11.628;2023-02-13T01:31:18;46.42;;;16.70;;
25780;SDS011;13626;48.128;11.628;2023-02-13T01:33:46;35.47;;;15.18;;
25780;SDS011;13626;48.128;11.628;2023-02-13T01:36:14;42.63;;;15.38;;
25780;SDS011;13626;48.128;11.628;2023-02-13T01:38:41;49.67;;;17.35;;
25780;SDS011;13626;48.128;11.628;2023-02-13T01:41:09;41.00;;;16.38;;
25780;SDS011;13626;48.128;11.628;2023-02-13T01:46:09;37.05;;;15.13;;
25780;SDS011;13626;48.128;11.628;2023-02-13T01:48:37;39.63;;;16.05;;
25780;SDS011;13626;48.128;11.628;2023-02-13T01:51:06;44.00;;;16.65;;
25780;SDS011;13626;48.128;11.628;2023-02-13T01:53:35;44.47;;;16.35;;
25780;SDS011;13626;48.128;11.628;2023-02-13T01:56:09;37.92;;;15.70;;
25780;SDS011;13626;48.128;11.628;2023-02-13T01:58:38;39.30;;;15.02;;
25780;SDS011;13626;48.128;11.628;2023-02-13T02:01:06;38.42;;;15.73;;
25780;SDS011;13626;48.128;11.628;2023-02-13T02:03:35;39.85;;;15.98;;
25780;SDS011;13626;48.128;11.628;2023-02-13T02:06:04;41.65;;;15.88;;
25780;SDS011;13626;48.128;11.628;2023-02-13T02:08:33;40.05;;;15.00;;
25780;SDS011;13626;48.128;11.628;2023-02-13T02:11:04;38.22;;;16.45;;
25780;SDS011;13626;48.128;11.628;2023-02-13T02:13:32;32.13;;;14.75;;
25780;SDS011;13626;48.128;11.628;2023-02-13T02:16:00;41.00;;;15.40;;
25780;SDS011;13626;48.128;11.628;2023-02-13T02:18:28;41.22;;;14.95;;
25780;SDS011;13626;48.128;11.628;2023-02-13T02:37:23;26.70;;;12.40;;
25780;SDS011;13626;48.128;11.628;2023-02-13T02:45:34;31.90;;;14.13;;
25780;SDS011;13626;48.128;11.628;2023-02-13T02:47:58;28.33;;;12.98;;
25780;SDS011;13626;48.128;11.628;2023-02-13T02:50:58;31.27;;;13.50;;
25780;SDS011;13626;48.128;11.628;2023-02-13T02:53:32;28.40;;;12.57;;
25780;SDS011;13626;48.128;11.628;2023-02-13T02:56:06;29.02;;;12.40;;
25780;SDS011;13626;48.128;11.628;2023-02-13T02:58:48;25.70;;;12.45;;
25780;SDS011;13626;48.128;11.628;2023-02-13T03:01:36;27.05;;;11.98;;
25780;SDS011;13626;48.128;11.628;2023-02-13T03:07:12;26.55;;;12.85;;
25780;SDS011;13626;48.128;11.628;2023-02-13T03:09:42;34.10;;;13.25;;
25780;SDS011;13626;48.128;11.628;2023-02-13T03:12:29;26.98;;;12.73;;
25780;SDS011;13626;48.128;11.628;2023-02-13T03:15:18;27.52;;;12.27;;
25780;SDS011;13626;48.128;11.628;2023-02-13T03:17:45;24.60;;;12.68;;
25780;SDS011;13626;48.128;11.628;2023-02-13T03:24:01;25.83;;;12.23;;
25780;SDS011;13626;48.128;11.628;2023-02-13T03:31:34;27.90;;;12.95;;
25780;SDS011;13626;48.128;11.628;2023-02-13T03:34:05;29.25;;;12.52;;
25780;SDS011;13626;48.128;11.628;2023-02-13T03:36:35;28.42;;;12.45;;
25780;SDS011;13626;48.128;11.628;2023-02-13T03:39:23;31.13;;;13.07;;
25780;SDS011;13626;48.128;11.628;2023-02-13T03:41:56;29.13;;;13.18;;
25780;SDS011;13626;48.128;11.628;2023-02-13T03:44:38;26.10;;;12.45;;
25780;SDS011;13626;48.128;11.628;2023-02-13T03:47:07;30.63;;;12.70;;
25780;SDS011;13626;48.128;11.628;2023-02-13T03:49:36;28.20;;;13.20;;
25780;SDS011;13626;48.128;11.628;2023-02-13T03:52:25;33.85;;;12.85;;
25780;SDS011;13626;48.128;11.628;2023-02-13T03:55:14;27.38;;;12.60;;
25780;SDS011;13626;48.128;11.628;2023-02-13T03:58:01;30.52;;;13.23;;
25780;SDS011;13626;48.128;11.628;2023-02-13T04:00:49;32.40;;;12.77;;
25780;SDS011;13626;48.128;11.628;2023-02-13T04:06:12;27.13;;;12.27;;
25780;SDS011;13626;48.128;11.628;2023-02-13T04:08:39;22.73;;;11.10;;
25780;SDS011;13626;48.128;11.628;2023-02-13T04:11:13;22.42;;;11.40;;
25780;SDS011;13626;48.128;11.628;2023-02-13T04:14:27;26.17;;;11.75;;
25780;SDS011;13626;48.128;11.628;2023-02-13T04:16:30;28.35;;;12.70;;
25780;SDS011;13626;48.128;11.628;2023-02-13T04:18:58;25.55;;;12.23;;
25780;SDS011;13626;48.128;11.628;2023-02-13T04:21:26;20.35;;;10.98;;
25780;SDS011;13626;48.128;11.628;2023-02-13T04:23:53;30.58;;;11.95;;
25780;SDS011;13626;48.128;11.628;2023-02-13T04:26:21;23.08;;;12.15;;
25780;SDS011;13626;48.128;11.628;2023-02-13T04:28:49;21.45;;;11.63;;
25780;SDS011;13626;48.128;11.628;2023-02-13T04:31:16;24.67;;;11.30;;
25780;SDS011;13626;48.128;11.628;2023-02-13T04:33:43;24.90;;;11.45;;
25780;SDS011;13626;48.128;11.628;2023-02-13T04:36:10;24.20;;;11.55;;
25780;SDS011;13626;48.128;11.628;2023-02-13T04:38:38;22.48;;;11.23;;
25780;SDS011;13626;48.128;11.628;2023-02-13T04:41:05;21.67;;;10.63;;
25780;SDS011;13626;48.128;11.628;2023-02-13T04:43:32;22.45;;;11.05;;
25780;SDS011;13626;48.128;11.628;2023-02-13T04:45:59;21.17;;;10.82;;
25780;SDS011;13626;48.128;11.628;2023-02-13T04:48:26;24.88;;;11.15;;
25780;SDS011;13626;48.128;11.628;2023-02-13T04:50:53;23.17;;;11.35;;
25780;SDS011;13626;48.128;11.628;2023-02-13T04:53:21;21.20;;;11.05;;
25780;SDS011;13626;48.128;11.628;2023-02-13T04:55:48;24.35;;;12.07;;
25780;SDS011;13626;48.128;11.628;2023-02-13T04:58:15;18.70;;;10.48;;
25780;SDS011;13626;48.128;11.628;2023-02-13T05:00:42;21.67;;;10.85;;
25780;SDS011;13626;48.128;11.628;2023-02-13T05:03:11;23.45;;;11.30;;
25780;SDS011;13626;48.128;11.628;2023-02-13T05:05:39;23.35;;;11.35;;
25780;SDS011;13626;48.128;11.628;2023-02-13T05:08:06;21.48;;;11.93;;
25780;SDS011;13626;48.128;11.628;2023-02-13T05:10:34;22.02;;;11.25;;
25780;SDS011;13626;48.128;11.628;2023-02-13T05:13:01;24.90;;;11.95;;
25780;SDS011;13626;48.128;11.628;2023-02-13T05:15:28;26.90;;;12.55;;
25780;SDS011;13626;48.128;11.628;2023-02-13T05:17:55;25.35;;;13.00;;
25780;SDS011;13626;48.128;11.628;2023-02-13T05:20:22;22.98;;;12.68;;
25780;SDS011;13626;48.128;11.628;2023-02-13T05:22:51;20.98;;;11.32;;
25780;SDS011;13626;48.128;11.628;2023-02-13T05:25:38;21.80;;;12.10;;
25780;SDS011;13626;48.128;11.628;2023-02-13T05:28:06;26.13;;;12.70;;
25780;SDS011;13626;48.128;11.628;2023-02-13T05:30:53;21.70;;;12.45;;
25780;SDS011;13626;48.128;11.628;2023-02-13T05:33:21;23.13;;;12.70;;
25780;SDS011;13626;48.128;11.628;2023-02-13T05:35:48;26.30;;;13.07;;
25780;SDS011;13626;48.128;11.628;2023-02-13T05:38:15;25.80;;;13.82;;
25780;SDS011;13626;48.128;11.628;2023-02-13T05:40:42;24.38;;;12.98;;
25780;SDS011;13626;48.128;11.628;2023-02-13T05:43:09;26.17;;;13.70;;
25780;SDS011;13626;48.128;11.628;2023-02-13T05:45:36;24.73;;;12.93;;
25780;SDS011;13626;48.128;11.628;2023-02-13T05:48:04;26.25;;;12.45;;
25780;SDS011;13626;48.128;11.628;2023-02-13T05:50:31;24.55;;;12.93;;
25780;SDS011;13626;48.128;11.628;2023-02-13T05:52:58;26.85;;;13.20;;
25780;SDS011;13626;48.128;11.628;2023-02-13T05:55:25;24.55;;;13.35;;
25780;SDS011;13626;48.128;11.628;2023-02-13T05:57:56;28.75;;;14.60;;
25780;SDS011;13626;48.128;11.628;2023-02-13T06:00:23;25.50;;;13.48;;
25780;SDS011;13626;48.128;11.628;2023-02-13T06:02:50;27.55;;;13.50;;
25780;SDS011;13626;48.128;11.628;2023-02-13T06:05:17;25.85;;;13.80;;
25780;SDS011;13626;48.128;11.628;2023-02-13T06:07:45;30.05;;;14.10;;
25780;SDS011;13626;48.128;11.628;2023-02-13T06:10:12;26.80;;;13.65;;
25780;SDS011;13626;48.128;11.628;2023-02-13T06:12:39;27.25;;;14.30;;
25780;SDS011;13626;48.128;11.628;2023-02-13T06:15:06;28.17;;;14.65;;
25780;SDS011;13626;48.128;11.628;2023-02-13T06:17:33;30.20;;;15.32;;
25780;SDS011;13626;48.128;11.628;2023-02-13T06:20:01;27.80;;;13.65;;
25780;SDS011;13626;48.128;11.628;2023-02-13T06:22:28;28.63;;;13.73;;
25780;SDS011;13626;48.128;11.628;2023-02-13T06:24:55;29.08;;;15.10;;
25780;SDS011;13626;48.128;11.628;2023-02-13T06:27:22;25.70;;;12.95;;
25780;SDS011;13626;48.128;11.628;2023-02-13T06:29:49;30.35;;;14.57;;
25780;SDS011;13626;48.128;11.628;2023-02-13T06:32:17;27.60;;;14.27;;
25780;SDS011;13626;48.128;11.628;2023-02-13T06:34:44;31.45;;;14.45;;
25780;SDS011;13626;48.128;11.628;2023-02-13T06:37:11;26.35;;;14.43;;
25780;SDS011;13626;48.128;11.628;2023-02-13T06:39:38;24.67;;;13.23;;
25780;SDS011;13626;48.128;11.628;2023-02-13T06:42:05;36.03;;;13.93;;
25780;SDS011;13626;48.128;11.628;2023-02-13T06:44:32;34.65;;;15.32;;
25780;SDS011;13626;48.128;11.628;2023-02-13T06:47:00;33.90;;;16.35;;
25780;SDS011;13626;48.128;11.628;2023-02-13T06:49:27;29.48;;;14.95;;
25780;SDS011;13626;48.128;11.628;2023-02-13T06:51:54;31.05;;;14.10;;
25780;SDS011;13626;48.128;11.628;2023-02-13T06:54:21;26.05;;;13.63;;
25780;SDS011;13626;48.128;11.628;2023-02-13T06:57:08;28.70;;;15.40;;
25780;SDS011;13626;48.128;11.628;2023-02-13T06:59:35;29.45;;;14.55;;
25780;SDS011;13626;48.128;11.628;2023-02-13T07:02:03;30.80;;;16.17;;
25780;SDS011;13626;48.128;11.628;2023-02-13T07:04:30;32.00;;;16.13;;
25780;SDS011;13626;48.128;11.628;2023-02-13T07:06:57;28.60;;;14.82;;
25780;SDS011;13626;48.128;11.628;2023-02-13T07:09:24;28.40;;;15.07;;
25780;SDS011;13626;48.128;11.628;2023-02-13T07:11:52;31.80;;;16.25;;
25780;SDS011;13626;48.128;11.628;2023-02-13T07:14:19;30.25;;;15.20;;
25780;SDS011;13626;48.128;11.628;2023-02-13T07:16:46;28.77;;;14.50;;
25780;SDS011;13626;48.128;11.628;2023-02-13T07:19:13;27.13;;;15.02;;
25780;SDS011;13626;48.128;11.628;2023-02-13T07:21:40;27.50;;;14.30;;
25780;SDS011;13626;48.128;11.628;2023-02-13T07:24:07;25.17;;;13.45;;
25780;SDS011;13626;48.128;11.628;2023-02-13T07:26:35;26.20;;;13.88;;
25780;SDS011;13626;48.128;11.628;2023-02-13T07:29:02;24.48;;;13.68;;
25780;SDS011;13626;48.128;11.628;2023-02-13T07:31:37;27.55;;;14.43;;
25780;SDS011;13626;48.128;11.628;2023-02-13T07:34:05;24.60;;;13.10;;
25780;SDS011;13626;48.128;11.628;2023-02-13T07:36:32;25.92;;;13.57;;
25780;SDS011;13626;48.128;11.628;2023-02-13T07:38:59;23.77;;;12.90;;
25780;SDS011;13626;48.128;11.628;2023-02-13T07:41:26;29.75;;;14.60;;
25780;SDS011;13626;48.128;11.628;2023-02-13T07:43:53;27.38;;;14.25;;
25780;SDS011;13626;48.128;11.628;2023-02-13T07:46:21;28.25;;;14.50;;
25780;SDS011;13626;48.128;11.628;2023-02-13T07:48:50;31.08;;;14.88;;
25780;SDS011;13626;48.128;11.628;2023-02-13T07:51:17;29.00;;;14.45;;
25780;SDS011;13626;48.128;11.628;2023-02-13T07:53:45;28.63;;;15.20;;
25780;SDS011;13626;48.128;11.628;2023-02-13T07:56:12;29.33;;;15.13;;
25780;SDS011;13626;48.128;11.628;2023-02-13T07:58:39;28.90;;;15.07;;
25780;SDS011;13626;48.128;11.628;2023-02-13T08:01:07;28.48;;;15.43;;
25780;SDS011;13626;48.128;11.628;2023-02-13T08:03:34;26.08;;;13.85;;
25780;SDS011;13626;48.128;11.628;2023-02-13T08:06:02;27.13;;;14.02;;
25780;SDS011;13626;48.128;11.628;2023-02-13T08:08:30;28.40;;;15.20;;
25780;SDS011;13626;48.128;11.628;2023-02-13T08:11:01;29.10;;;14.23;;
25780;SDS011;13626;48.128;11.628;2023-02-13T08:13:48;30.80;;;13.65;;
25780;SDS011;13626;48.128;11.628;2023-02-13T08:16:15;28.90;;;14.27;;
25780;SDS011;13626;48.128;11.628;2023-02-13T08:18:42;27.10;;;14.15;;
25780;SDS011;13626;48.128;11.628;2023-02-13T08:21:09;26.38;;;13.52;;
25780;SDS011;13626;48.128;11.628;2023-02-13T08:23:36;23.98;;;13.15;;
25780;SDS011;13626;48.128;11.628;2023-02-13T08:26:04;22.80;;;12.60;;
25780;SDS011;13626;48.128;11.628;2023-02-13T08:28:31;28.15;;;13.80;;
25780;SDS011;13626;48.128;11.628;2023-02-13T08:30:58;23.92;;;12.88;;
25780;SDS011;13626;48.128;11.628;2023-02-13T08:33:25;27.73;;;14.38;;
25780;SDS011;13626;48.128;11.628;2023-02-13T08:35:52;32.00;;;16.08;;
25780;SDS011;13626;48.128;11.628;2023-02-13T08:38:20;31.00;;;14.55;;
25780;SDS011;13626;48.128;11.628;2023-02-13T08:40:47;31.55;;;15.05;;
25780;SDS011;13626;48.128;11.628;2023-02-13T08:43:14;28.33;;;13.90;;
25780;SDS011;13626;48.128;11.628;2023-02-13T08:45:41;29.40;;;14.20;;
25780;SDS011;13626;48.128;11.628;2023-02-13T08:48:09;31.10;;;15.88;;
25780;SDS011;13626;48.128;11.628;2023-02-13T08:50:36;35.22;;;16.27;;
25780;SDS011;13626;48.128;11.628;2023-02-13T08:53:03;26.17;;;14.10;;
25780;SDS011;13626;48.128;11.628;2023-02-13T08:55:30;34.15;;;16.70;;
25780;SDS011;13626;48.128;11.628;2023-02-13T08:57:58;35.38;;;16.05;;
25780;SDS011;13626;48.128;11.628;2023-02-13T09:00:27;32.10;;;16.17;;
25780;SDS011;13626;48.128;11.628;2023-02-13T09:02:54;34.15;;;16.33;;
25780;SDS011;13626;48.128;11.628;2023-02-13T09:05:21;31.90;;;15.05;;
25780;SDS011;13626;48.128;11.628;2023-02-13T09:07:49;29.40;;;15.98;;
25780;SDS011;13626;48.128;11.628;2023-02-13T09:10:16;29.83;;;15.88;;
25780;SDS011;13626;48.128;11.628;2023-02-13T09:12:44;30.13;;;16.30;;
25780;SDS011;13626;48.128;11.628;2023-02-13T09:15:17;32.28;;;15.73;;
25780;SDS011;13626;48.128;11.628;2023-02-13T09:17:44;36.85;;;17.30;;
25780;SDS011;13626;48.128;11.628;2023-02-13T09:20:12;32.58;;;16.63;;
25780;SDS011;13626;48.128;11.628;2023-02-13T09:22:39;29.52;;;15.55;;
25780;SDS011;13626;48.128;11.628;2023-02-13T09:25:07;30.67;;;15.13;;
25780;SDS011;13626;48.128;11.628;2023-02-13T09:27:34;31.05;;;15.85;;
25780;SDS011;13626;48.128;11.628;2023-02-13T09:30:02;30.83;;;15.50;;
25780;SDS011;13626;48.128;11.628;2023-02-13T09:32:29;33.10;;;16.25;;
25780;SDS011;13626;48.128;11.628;2023-02-13T09:34:56;31.73;;;16.48;;
25780;SDS011;13626;48.128;11.628;2023-02-13T09:37:24;28.27;;;15.73;;
25780;SDS011;13626;48.128;11.628;2023-02-13T09:39:52;30.15;;;15.38;;
25780;SDS011;13626;48.128;11.628;2023-02-13T09:42:23;31.48;;;16.27;;
25780;SDS011;13626;48.128;11.628;2023-02-13T09:44:53;29.33;;;16.73;;
25780;SDS011;13626;48.128;11.628;2023-02-13T09:47:26;32.00;;;16.02;;
25780;SDS011;13626;48.128;11.628;2023-02-13T09:49:56;31.90;;;16.67;;
25780;SDS011;13626;48.128;11.628;2023-02-13T09:52:29;31.60;;;16.27;;
25780;SDS011;13626;48.128;11.628;2023-02-13T09:54:58;35.17;;;16.23;;
25780;SDS011;13626;48.128;11.628;2023-02-13T10:07:26;30.50;;;15.88;;
25780;SDS011;13626;48.128;11.628;2023-02-13T10:12:55;29.98;;;16.60;;
25780;SDS011;13626;48.128;11.628;2023-02-13T10:18:03;33.13;;;16.90;;
25780;SDS011;13626;48.128;11.628;2023-02-13T10:20:32;33.33;;;16.13;;
25780;SDS011;13626;48.128;11.628;2023-02-13T10:23:43;30.27;;;15.43;;
25780;SDS011;13626;48.128;11.628;2023-02-13T10:25:57;29.05;;;15.13;;
25780;SDS011;13626;48.128;11.628;2023-02-13T10:30:57;32.28;;;16.35;;
25780;SDS011;13626;48.128;11.628;2023-02-13T10:36:15;34.20;;;16.38;;
25780;SDS011;13626;48.128;11.628;2023-02-13T10:38:50;32.10;;;16.98;;
25780;SDS011;13626;48.128;11.628;2023-02-13T10:44:13;37.30;;;16.02;;
25780;SDS011;13626;48.128;11.628;2023-02-13T10:52:21;32.20;;;16.95;;
25780;SDS011;13626;48.128;11.628;2023-02-13T10:54:59;32.80;;;16.23;;
25780;SDS011;13626;48.128;11.628;2023-02-13T10:57:36;29.95;;;15.50;;
25780;SDS011;13626;48.128;11.628;2023-02-13T11:00:22;34.15;;;17.13;;
25780;SDS011;13626;48.128;11.628;2023-02-13T11:02:50;29.75;;;14.88;;
25780;SDS011;13626;48.128;11.628;2023-02-13T11:05:20;29.15;;;15.25;;
25780;SDS011;13626;48.128;11.628;2023-02-13T11:07:47;32.25;;;16.50;;
25780;SDS011;13626;48.128;11.628;2023-02-13T11:10:19;34.42;;;16.42;;
25780;SDS011;13626;48.128;11.628;2023-02-13T11:12:47;32.95;;;16.20;;
25780;SDS011;13626;48.128;11.628;2023-02-13T11:17:48;28.27;;;14.93;;
25780;SDS011;13626;48.128;11.628;2023-02-13T11:22:53;29.65;;;15.70;;
25780;SDS011;13626;48.128;11.628;2023-02-13T11:25:24;27.65;;;15.48;;
25780;SDS011;13626;48.128;11.628;2023-02-13T11:28:04;28.75;;;15.23;;
25780;SDS011;13626;48.128;11.628;2023-02-13T11:30:35;33.05;;;15.50;;
25780;SDS011;13626;48.128;11.628;2023-02-13T11:33:03;27.90;;;14.75;;
25780;SDS011;13626;48.128;11.628;2023-02-13T11:35:32;31.13;;;15.23;;
25780;SDS011;13626;48.128;11.628;2023-02-13T11:40:36;30.60;;;16.50;;
25780;SDS011;13626;48.128;11.628;2023-02-13T11:43:04;28.77;;;15.48;;
25780;SDS011;13626;48.128;11.628;2023-02-13T11:45:32;28.17;;;15.00;;
25780;SDS011;13626;48.128;11.628;2023-02-13T11:47:59;25.73;;;14.82;;
25780;SDS011;13626;48.128;11.628;2023-02-13T11:50:36;27.83;;;14.52;;
25780;SDS011;13626;48.128;11.628;2023-02-13T11:53:04;30.95;;;16.45;;
25780;SDS011;13626;48.128;11.628;2023-02-13T11:55:36;36.50;;;17.65;;
25780;SDS011;13626;48.128;11.628;2023-02-13T12:00:35;28.02;;;15.75;;
25780;SDS011;13626;48.128;11.628;2023-02-13T12:03:22;30.98;;;15.85;;
25780;SDS011;13626;48.128;11.628;2023-02-13T12:08:36;32.05;;;15.63;;
25780;SDS011;13626;48.128;11.628;2023-02-13T12:11:28;35.50;;;14.98;;
25780;SDS011;13626;48.128;11.628;2023-02-13T12:13:51;32.85;;;14.75;;
25780;SDS011;13626;48.128;11.628;2023-02-13T12:18:48;26.48;;;13.27;;
25780;SDS011;13626;48.128;11.628;2023-02-13T12:21:35;27.33;;;14.57;;
25780;SDS011;13626;48.128;11.628;2023-02-13T12:24:29;32.17;;;14.90;;
25780;SDS011;13626;48.128;11.628;2023-02-13T12:35:07;28.10;;;14.85;;
25780;SDS011;13626;48.128;11.628;2023-02-13T12:43:07;27.23;;;16.00;;
25780;SDS011;13626;48.128;11.628;2023-02-13T12:48:18;28.85;;;14.48;;
25780;SDS011;13626;48.128;11.628;2023-02-13T12:55:57;24.42;;;13.90;;
25780;SDS011;13626;48.128;11.628;2023-02-13T13:01:41;25.45;;;13.50;;
25780;SDS011;13626;48.128;11.628;2023-02-13T13:28:21;25.60;;;12.85;;
25780;SDS011;13626;48.128;11.628;2023-02-13T13:30:49;23.63;;;12.63;;
25780;SDS011;13626;48.128;11.628;2023-02-13T13:33:17;26.20;;;13.60;;
25780;SDS011;13626;48.128;11.628;2023-02-13T13:35:57;27.35;;;13.80;;
25780;SDS011;13626;48.128;11.628;2023-02-13T13:41:17;25.30;;;13.13;;
25780;SDS011;13626;48.128;11.628;2023-02-13T13:46:30;21.50;;;11.70;;
25780;SDS011;13626;48.128;11.628;2023-02-13T13:49:19;24.05;;;12.32;;
25780;SDS011;13626;48.128;11.628;2023-02-13T13:51:49;23.50;;;12.43;;
25780;SDS011;13626;48.128;11.628;2023-02-13T13:54:18;29.40;;;12.82;;
25780;SDS011;13626;48.128;11.628;2023-02-13T13:59:24;31.17;;;13.75;;
25780;SDS011;13626;48.128;11.628;2023-02-13T14:02:51;26.45;;;13.00;;
25780;SDS011;13626;48.128;11.628;2023-02-13T14:07:39;24.77;;;12.60;;
25780;SDS011;13626;48.128;11.628;2023-02-13T14:10:46;18.83;;;11.30;;
25780;SDS011;13626;48.128;11.628;2023-02-13T14:13:03;20.92;;;11.77;;
25780;SDS011;13626;48.128;11.628;2023-02-13T14:18:02;22.85;;;12.40;;
25780;SDS011;13626;48.128;11.628;2023-02-13T14:20:34;21.27;;;11.45;;
25780;SDS011;13626;48.128;11.628;2023-02-13T14:25:45;20.45;;;11.48;;
25780;SDS011;13626;48.128;11.628;2023-02-13T14:28:22;20.42;;;11.75;;
25780;SDS011;13626;48.128;11.628;2023-02-13T14:30:51;24.70;;;11.45;;
25780;SDS011;13626;48.128;11.628;2023-02-13T14:33:28;22.20;;;12.00;;
25780;SDS011;13626;48.128;11.628;2023-02-13T14:36:06;22.10;;;11.15;;
25780;SDS011;13626;48.128;11.628;2023-02-13T14:38:34;23.77;;;12.23;;
25780;SDS011;13626;48.128;11.628;2023-02-13T14:41:01;20.80;;;11.95;;
25780;SDS011;13626;48.128;11.628;2023-02-13T14:46:06;21.90;;;12.63;;
25780;SDS011;13626;48.128;11.628;2023-02-13T14:48:36;24.95;;;13.48;;
25780;SDS011;13626;48.128;11.628;2023-02-13T14:51:05;22.50;;;12.55;;
25780;SDS011;13626;48.128;11.628;2023-02-13T14:53:37;25.45;;;12.93;;
25780;SDS011;13626;48.128;11.628;2023-02-13T14:56:12;25.00;;;12.40;;
25780;SDS011;13626;48.128;11.628;2023-02-13T14:59:04;26.20;;;12.80;;
25780;SDS011;13626;48.128;11.628;2023-02-13T15:01:31;25.83;;;12.70;;
25780;SDS011;13626;48.128;11.628;2023-02-13T15:04:14;23.05;;;12.80;;
25780;SDS011;13626;48.128;11.628;2023-02-13T15:06:43;25.48;;;12.45;;
25780;SDS011;13626;48.128;11.628;2023-02-13T15:11:58;27.85;;;13.93;;
25780;SDS011;13626;48.128;11.628;2023-02-13T15:14:35;27.92;;;13.25;;
25780;SDS011;13626;48.128;11.628;2023-02-13T15:17:06;24.13;;;12.63;;
25780;SDS011;13626;48.128;11.628;2023-02-13T15:19:35;29.05;;;14.75;;
25780;SDS011;13626;48.128;11.628;2023-02-13T15:22:03;27.42;;;12.10;;
25780;SDS011;13626;48.128;11.628;2023-02-13T15:24:42;23.27;;;12.48;;
25780;SDS011;13626;48.128;11.628;2023-02-13T15:27:15;24.83;;;12.93;;
25780;SDS011;13626;48.128;11.628;2023-02-13T15:29:54;24.77;;;14.35;;
25780;SDS011;13626;48.128;11.628;2023-02-13T15:32:25;24.48;;;13.48;;
25780;SDS011;13626;48.128;11.628;2023-02-13T15:34:53;25.70;;;13.88;;
25780;SDS011;13626;48.128;11.628;2023-02-13T15:37:21;27.45;;;14.07;;
25780;SDS011;13626;48.128;11.628;2023-02-13T15:39:49;29.33;;;13.57;;
25780;SDS011;13626;48.128;11.628;2023-02-13T15:42:16;27.40;;;13.88;;
25780;SDS011;13626;48.128;11.628;2023-02-13T15:44:44;26.13;;;13.38;;
25780;SDS011;13626;48.128;11.628;2023-02-13T15:47:24;27.15;;;14.40;;
25780;SDS011;13626;48.128;11.628;2023-02-13T15:49:52;27.55;;;13.35;;
25780;SDS011;13626;48.128;11.628;2023-02-13T15:52:27;25.15;;;12.77;;
25780;SDS011;13626;48.128;11.628;2023-02-13T15:57:23;27.60;;;13.65;;
25780;SDS011;13626;48.128;11.628;2023-02-13T15:59:51;25.75;;;14.43;;
25780;SDS011;13626;48.128;11.628;2023-02-13T16:05:15;24.20;;;13.32;;
25780;SDS011;13626;48.128;11.628;2023-02-13T16:08:02;24.08;;;13.82;;
25780;SDS011;13626;48.128;11.628;2023-02-13T16:10:33;22.63;;;12.88;;
25780;SDS011;13626;48.128;11.628;2023-02-13T16:13:02;26.90;;;13.55;;
25780;SDS011;13626;48.128;11.628;2023-02-13T16:15:31;26.50;;;13.65;;
25780;SDS011;13626;48.128;11.628;2023-02-13T16:17:59;27.85;;;14.35;;
25780;SDS011;13626;48.128;11.628;2023-02-13T16:20:29;26.17;;;14.07;;
25780;SDS011;13626;48.128;11.628;2023-02-13T16:23:03;23.80;;;13.32;;
25780;SDS011;13626;48.128;11.628;2023-02-13T16:25:33;26.17;;;14.50;;
25780;SDS011;13626;48.128;11.628;2023-02-13T16:28:02;26.40;;;13.63;;
25780;SDS011;13626;48.128;11.628;2023-02-13T16:30:32;23.70;;;13.52;;
25780;SDS011;13626;48.128;11.628;2023-02-13T16:35:37;27.58;;;15.18;;
25780;SDS011;13626;48.128;11.628;2023-02-13T16:38:20;28.08;;;14.38;;
25780;SDS011;13626;48.128;11.628;2023-02-13T16:40:50;26.10;;;14.52;;
25780;SDS011;13626;48.128;11.628;2023-02-13T16:43:36;27.55;;;15.05;;
25780;SDS011;13626;48.128;11.628;2023-02-13T16:53:56;29.08;;;15.32;;
25780;SDS011;13626;48.128;11.628;2023-02-13T16:56:24;29.10;;;15.30;;
25780;SDS011;13626;48.128;11.628;2023-02-13T16:59:02;27.50;;;14.63;;
25780;SDS011;13626;48.128;11.628;2023-02-13T17:01:29;28.98;;;15.85;;
25780;SDS011;13626;48.128;11.628;2023-02-13T17:04:11;32.42;;;15.38;;
25780;SDS011;13626;48.128;11.628;2023-02-13T17:06:41;30.38;;;16.25;;
25780;SDS011;13626;48.128;11.628;2023-02-13T17:09:08;31.98;;;16.67;;
25780;SDS011;13626;48.128;11.628;2023-02-13T17:11:35;30.40;;;16.25;;
25780;SDS011;13626;48.128;11.628;2023-02-13T17:14:03;34.60;;;17.45;;
25780;SDS011;13626;48.128;11.628;2023-02-13T17:16:31;32.97;;;17.40;;